Time;durP1;ratioP1;P1;durP2;ratioP2;P2;SDS_P1;SDS_P2;PMS_P1;PMS_P2;Temp;Humidity;BMP_temperature;BMP_pressure;BME280_temperature;BME280_humidity;BME280_pressure;Samples;Min_cycle;Max_cycle;Signal;HPM_P1;HPM_P2
2023/02/16 00:01:49;;;;;;;22.47;12.47;;;4.90;99.90;;;;;;5097631;28;20623;-66
2023/02/16 00:04:19;;;;;;;15.87;10.63;;;4.90;99.90;;;;;;5097288;28;20438;-63
2023/02/16 00:06:46;;;;;;;18.57;10.53;;;4.90;99.90;;;;;;5097866;28;20470;-63
2023/02/16 00:09:16;;;;;;;15.57;9.90;;;4.90;99.90;;;;;;5097806;28;20450;-63
2023/02/16 00:14:34;;;;;;;13.00;9.70;;;4.70;99.90;;;;;;5098050;28;20444;-63
2023/02/16 00:17:03;;;;;;;13.33;9.20;;;4.80;99.90;;;;;;5097292;28;20443;-61
2023/02/16 00:19:34;;;;;;;17.00;9.60;;;4.80;99.90;;;;;;5097758;28;20504;-64
2023/02/16 00:22:02;;;;;;;12.87;8.37;;;4.70;99.90;;;;;;5098024;28;20431;-58
2023/02/16 00:24:32;;;;;;;17.70;9.03;;;4.70;99.90;;;;;;5097743;28;20446;-62
2023/02/16 00:27:00;;;;;;;15.27;8.80;;;4.60;99.90;;;;;;5097203;28;20421;-64
2023/02/16 00:29:28;;;;;;;16.70;8.80;;;4.60;99.90;;;;;;5097359;28;20489;-61
2023/02/16 00:31:59;;;;;;;12.67;7.87;;;4.60;99.90;;;;;;5097889;28;20536;-65
2023/02/16 00:34:31;;;;;;;11.33;7.30;;;4.50;99.90;;;;;;5097866;28;20437;-60
2023/02/16 00:37:00;;;;;;;13.10;7.90;;;4.60;99.90;;;;;;5098035;28;20452;-63
2023/02/16 00:39:27;;;;;;;17.77;9.10;;;4.50;99.90;;;;;;5097467;28;20473;-61
2023/02/16 00:42:00;;;;;;;14.50;8.10;;;4.50;99.90;;;;;;5097175;28;20462;-63
2023/02/16 00:44:31;;;;;;;17.00;8.47;;;4.50;99.90;;;;;;5097604;28;20453;-65
2023/02/16 00:47:11;;;;;;;17.47;8.50;;;4.40;99.90;;;;;;5097165;28;20433;-64
2023/02/16 00:49:39;;;;;;;12.37;7.30;;;4.40;99.90;;;;;;5096781;28;20443;-63
2023/02/16 00:52:33;;;;;;;13.17;9.40;;;4.40;99.90;;;;;;5097244;28;20446;-63
2023/02/16 00:55:01;;;;;;;11.43;8.17;;;4.40;99.90;;;;;;5094615;28;20449;-65
2023/02/16 00:57:32;;;;;;;9.43;8.50;;;4.40;99.90;;;;;;5097413;28;20438;-64
2023/02/16 01:00:03;;;;;;;12.70;7.40;;;4.40;99.90;;;;;;5097197;28;20458;-62
2023/02/16 01:02:30;;;;;;;12.67;7.87;;;4.30;99.90;;;;;;5097216;28;20407;-62
2023/02/16 01:04:58;;;;;;;15.30;8.20;;;4.30;99.90;;;;;;5097616;28;20422;-58
2023/02/16 01:12:56;;;;;;;17.50;9.13;;;4.40;99.90;;;;;;5097285;28;20497;-62
2023/02/16 01:15:27;;;;;;;13.10;7.50;;;4.20;99.90;;;;;;5097584;28;20429;-64
2023/02/16 01:17:54;;;;;;;17.53;8.57;;;5.40;99.90;;;;;;5097239;28;20469;-61
2023/02/16 01:20:25;;;;;;;14.43;9.00;;;4.20;99.90;;;;;;5097414;28;20453;-61
2023/02/16 01:22:54;;;;;;;13.53;7.40;;;4.20;99.90;;;;;;5097637;28;20427;-61
2023/02/16 01:25:21;;;;;;;16.17;9.77;;;4.20;99.90;;;;;;5096422;28;20454;-62
2023/02/16 01:27:50;;;;;;;11.40;8.67;;;4.20;99.90;;;;;;5097160;28;20426;-64
2023/02/16 01:30:21;;;;;;;13.53;9.33;;;4.20;99.90;;;;;;5096871;28;20481;-63
2023/02/16 01:32:50;;;;;;;12.50;8.60;;;4.20;99.90;;;;;;5095553;28;20423;-64
2023/02/16 01:35:18;;;;;;;15.47;7.93;;;4.20;99.90;;;;;;5096815;28;20419;-63
2023/02/16 01:37:48;;;;;;;13.80;8.30;;;4.20;99.90;;;;;;5095782;28;20439;-61
2023/02/16 01:40:23;;;;;;;17.10;8.70;;;4.20;99.90;;;;;;5096835;28;20442;-61
2023/02/16 01:42:57;;;;;;;11.87;8.23;;;4.20;99.90;;;;;;5096633;28;20454;-62
2023/02/16 01:45:32;;;;;;;12.70;8.27;;;4.20;99.90;;;;;;5096399;28;20422;-59
2023/02/16 01:48:06;;;;;;;13.77;8.83;;;4.20;99.90;;;;;;5096876;28;20485;-61
2023/02/16 01:50:41;;;;;;;11.67;8.03;;;4.10;99.90;;;;;;5097287;28;20435;-63
2023/02/16 01:53:17;;;;;;;17.00;11.20;;;4.10;99.90;;;;;;5097399;28;20449;-61
2023/02/16 01:55:49;;;;;;;14.03;8.07;;;4.00;99.90;;;;;;5097431;28;20438;-58
2023/02/16 01:58:27;;;;;;;13.77;8.20;;;4.00;99.90;;;;;;5097551;28;20454;-63
2023/02/16 02:01:40;;;;;;;14.43;8.17;;;4.00;99.90;;;;;;5099321;28;20446;-63
2023/02/16 02:07:03;;;;;;;16.23;9.00;;;3.90;99.90;;;;;;5100735;28;20472;-63
2023/02/16 02:09:40;;;;;;;10.97;7.10;;;3.90;99.90;;;;;;5100346;28;20442;-64
2023/02/16 02:12:14;;;;;;;15.30;9.80;;;3.70;99.90;;;;;;5099514;28;20440;-64
2023/02/16 02:14:41;;;;;;;14.47;7.67;;;3.80;99.90;;;;;;5100820;28;20461;-62
2023/02/16 02:17:12;;;;;;;11.60;8.23;;;3.80;99.90;;;;;;5100226;28;20438;-59
2023/02/16 02:19:46;;;;;;;11.30;9.10;;;3.80;99.90;;;;;;5100165;28;20494;-63
2023/02/16 02:26:19;;;;;;;10.50;7.47;;;3.70;99.90;;;;;;5100838;28;20461;-63
2023/02/16 02:29:02;;;;;;;13.23;7.53;;;3.70;99.90;;;;;;5100696;28;20431;-64
2023/02/16 02:31:42;;;;;;;13.70;8.07;;;3.70;99.90;;;;;;5100054;28;20474;-64
2023/02/16 02:34:17;;;;;;;16.93;7.87;;;3.70;99.90;;;;;;5099889;28;20457;-61
2023/02/16 02:36:54;;;;;;;10.57;8.20;;;3.70;99.90;;;;;;5100591;28;20444;-62
2023/02/16 02:39:36;;;;;;;18.13;9.90;;;3.60;99.90;;;;;;5100311;28;20470;-60
2023/02/16 02:42:09;;;;;;;19.50;10.43;;;3.70;99.90;;;;;;5100286;28;20433;-61
2023/02/16 02:44:45;;;;;;;15.40;9.07;;;3.60;99.90;;;;;;5099859;28;20462;-60
2023/02/16 02:47:12;;;;;;;23.13;11.83;;;3.60;99.90;;;;;;5099477;28;20438;-66
2023/02/16 02:49:39;;;;;;;11.43;8.87;;;3.50;99.90;;;;;;5099373;28;20458;-63
2023/02/16 02:52:08;;;;;;;15.40;10.20;;;3.60;99.90;;;;;;5099033;28;20494;-63
2023/02/16 03:03:07;;;;;;;12.20;9.30;;;3.60;99.90;;;;;;5099645;28;20457;-61
2023/02/16 03:05:36;;;;;;;12.27;8.37;;;3.60;99.90;;;;;;5099733;28;20419;-57
2023/02/16 03:08:13;;;;;;;14.40;10.20;;;3.60;99.90;;;;;;5099518;28;20466;-57
2023/02/16 03:13:36;;;;;;;15.17;9.07;;;3.60;99.90;;;;;;5098630;28;20422;-60
2023/02/16 03:16:11;;;;;;;12.90;8.53;;;3.50;99.90;;;;;;5099194;28;20437;-59
2023/02/16 03:29:52;;;;;;;9.80;6.50;;;3.70;99.90;;;;;;5099183;28;20429;-64
2023/02/16 03:32:21;;;;;;;17.53;9.03;;;3.60;99.90;;;;;;5096935;28;20450;-62
2023/02/16 03:34:48;;;;;;;11.93;8.27;;;3.60;99.90;;;;;;5098552;28;20473;-62
2023/02/16 03:37:15;;;;;;;15.83;9.33;;;3.60;99.90;;;;;;5097891;28;20439;-64
2023/02/16 03:42:30;;;;;;;14.93;10.20;;;3.60;99.90;;;;;;5098862;28;20402;-61
2023/02/16 03:44:57;;;;;;;13.53;8.90;;;3.60;99.90;;;;;;5098360;28;20457;-61
2023/02/16 03:47:26;;;;;;;17.27;7.53;;;3.60;99.90;;;;;;5098659;28;20437;-60
2023/02/16 03:49:58;;;;;;;14.27;7.43;;;3.60;99.90;;;;;;5098582;28;20446;-61
2023/02/16 03:52:30;;;;;;;17.57;10.50;;;3.60;99.90;;;;;;5097461;28;20427;-58
2023/02/16 03:54:57;;;;;;;13.70;9.80;;;3.60;99.90;;;;;;5098409;28;20407;-57
2023/02/16 03:57:25;;;;;;;15.50;10.07;;;3.60;99.90;;;;;;5097843;28;20477;-64
2023/02/16 03:59:53;;;;;;;12.77;8.40;;;3.80;99.90;;;;;;5098162;28;20474;-63
2023/02/16 04:02:20;;;;;;;10.90;8.50;;;3.60;99.90;;;;;;5096215;28;20459;-63
2023/02/16 04:04:48;;;;;;;19.63;10.40;;;3.80;99.90;;;;;;5097582;28;20419;-62
2023/02/16 04:07:15;;;;;;;17.03;8.90;;;3.60;99.90;;;;;;5097799;28;20442;-62
2023/02/16 04:09:41;;;;;;;12.50;9.00;;;3.60;99.90;;;;;;5097657;28;20474;-63
2023/02/16 04:14:55;;;;;;;12.90;8.43;;;3.60;99.90;;;;;;5097889;28;20900;-62
2023/02/16 04:17:24;;;;;;;14.63;9.00;;;3.50;99.90;;;;;;5097994;28;20439;-65
2023/02/16 04:19:52;;;;;;;13.80;8.37;;;3.50;99.90;;;;;;5097152;28;20543;-62
2023/02/16 04:22:23;;;;;;;19.53;8.37;;;3.50;99.90;;;;;;5097399;28;20478;-64
2023/02/16 04:24:52;;;;;;;11.60;6.97;;;3.50;99.90;;;;;;5097481;28;20447;-60
2023/02/16 04:27:19;;;;;;;13.43;7.77;;;3.40;99.90;;;;;;5096050;28;20466;-65
2023/02/16 04:29:46;;;;;;;11.27;8.00;;;3.40;99.90;;;;;;5096550;28;20461;-65
2023/02/16 04:32:12;;;;;;;17.20;10.57;;;3.40;99.90;;;;;;5097411;28;20473;-59
2023/02/16 04:34:39;;;;;;;22.17;10.10;;;3.30;99.90;;;;;;5096918;28;20434;-64
2023/02/16 04:37:08;;;;;;;14.27;8.50;;;3.30;99.90;;;;;;5096549;28;20442;-64
2023/02/16 04:39:35;;;;;;;16.97;10.60;;;3.30;99.90;;;;;;5096234;28;20467;-64
2023/02/16 04:42:05;;;;;;;17.93;10.30;;;3.30;99.90;;;;;;5096612;28;20435;-66
2023/02/16 04:44:34;;;;;;;12.03;7.17;;;3.30;99.90;;;;;;5096560;28;20434;-65
2023/02/16 04:47:03;;;;;;;13.50;8.37;;;3.30;99.90;;;;;;5096802;28;20442;-65
2023/02/16 04:49:32;;;;;;;15.43;8.30;;;3.20;99.90;;;;;;5096501;28;20435;-61
2023/02/16 04:51:59;;;;;;;11.63;7.47;;;3.40;99.90;;;;;;5096843;28;20473;-61
2023/02/16 04:54:28;;;;;;;17.90;8.63;;;3.10;99.90;;;;;;5097200;28;20429;-66
2023/02/16 04:56:54;;;;;;;14.53;9.93;;;3.10;99.90;;;;;;5096555;28;20426;-61
2023/02/16 04:59:21;;;;;;;13.00;8.53;;;3.10;99.90;;;;;;5096870;28;20510;-62
2023/02/16 05:01:48;;;;;;;11.70;8.10;;;3.10;99.90;;;;;;5097265;28;20454;-62
2023/02/16 05:04:16;;;;;;;26.77;15.17;;;3.10;99.90;;;;;;5097013;28;20448;-59
2023/02/16 05:06:43;;;;;;;19.20;10.53;;;3.10;99.90;;;;;;5097299;28;20445;-60
2023/02/16 05:09:10;;;;;;;15.77;8.43;;;3.10;99.90;;;;;;5096971;28;20422;-65
2023/02/16 05:14:41;;;;;;;20.73;9.77;;;3.10;99.90;;;;;;5097012;28;20394;-58
2023/02/16 05:17:08;;;;;;;16.93;8.40;;;3.10;99.90;;;;;;5097030;28;20482;-65
2023/02/16 05:19:35;;;;;;;11.90;7.60;;;2.90;99.90;;;;;;5096610;28;20471;-64
2023/02/16 05:22:02;;;;;;;19.70;10.60;;;3.00;99.90;;;;;;5097092;28;20469;-67
2023/02/16 05:24:33;;;;;;;18.40;10.17;;;2.80;99.90;;;;;;5097148;28;20427;-61
2023/02/16 05:27:01;;;;;;;14.50;11.10;;;2.90;99.90;;;;;;5097334;28;20425;-64
2023/02/16 05:29:28;;;;;;;10.07;6.87;;;2.90;99.90;;;;;;5097164;28;20446;-61
2023/02/16 05:31:57;;;;;;;10.73;7.27;;;3.00;99.90;;;;;;5097084;28;20446;-63
2023/02/16 05:34:24;;;;;;;10.40;7.87;;;2.90;99.90;;;;;;5096978;28;20518;-63
2023/02/16 05:36:51;;;;;;;14.20;7.90;;;2.90;99.90;;;;;;5100850;28;20943;-63
2023/02/16 05:39:18;;;;;;;10.97;7.80;;;2.90;99.90;;;;;;5100216;28;20591;-62
2023/02/16 05:41:49;;;;;;;9.53;6.20;;;2.80;99.90;;;;;;5100486;28;20458;-64
2023/02/16 05:44:19;;;;;;;9.37;5.83;;;2.90;99.90;;;;;;5100827;28;20546;-64
2023/02/16 05:46:49;;;;;;;17.57;7.77;;;2.90;99.90;;;;;;5101306;28;20456;-62
2023/02/16 05:49:16;;;;;;;14.63;7.50;;;1.70;99.90;;;;;;5101106;28;20410;-66
2023/02/16 05:51:44;;;;;;;10.33;6.53;;;2.80;99.90;;;;;;5100444;28;20426;-63
2023/02/16 05:54:15;;;;;;;19.93;9.07;;;2.80;99.90;;;;;;5101123;28;20454;-65
2023/02/16 05:56:43;;;;;;;15.00;9.60;;;2.80;99.90;;;;;;5100245;28;20406;-64
2023/02/16 05:59:10;;;;;;;13.73;6.60;;;2.80;99.90;;;;;;5099922;28;20466;-63
2023/02/16 06:01:39;;;;;;;12.70;8.03;;;2.80;99.90;;;;;;5099920;28;20434;-66
2023/02/16 06:04:07;;;;;;;18.53;6.87;;;2.80;99.90;;;;;;5100424;28;20439;-64
2023/02/16 06:06:34;;;;;;;11.77;6.53;;;2.80;99.90;;;;;;5099766;28;20457;-63
2023/02/16 06:09:01;;;;;;;13.63;7.23;;;2.80;99.90;;;;;;5100126;28;20438;-61
2023/02/16 06:12:10;;;;;;;20.00;9.63;;;2.70;99.90;;;;;;5100151;28;20462;-66
2023/02/16 06:14:37;;;;;;;10.37;6.90;;;2.70;99.90;;;;;;5100119;28;20456;-63
2023/02/16 06:17:08;;;;;;;11.47;6.50;;;2.80;99.90;;;;;;5099556;28;20442;-61
2023/02/16 06:19:35;;;;;;;14.20;7.23;;;2.80;99.90;;;;;;5099658;28;20477;-61
2023/02/16 06:22:04;;;;;;;11.90;7.23;;;2.70;99.90;;;;;;5099413;28;20462;-63
2023/02/16 06:24:31;;;;;;;13.10;7.23;;;2.70;99.90;;;;;;5099068;28;20472;-63
2023/02/16 06:27:02;;;;;;;11.00;7.33;;;2.70;99.90;;;;;;5099364;28;20517;-64
2023/02/16 06:29:30;;;;;;;11.87;8.30;;;2.70;99.90;;;;;;5098608;28;20492;-63
2023/02/16 06:31:57;;;;;;;14.00;8.43;;;2.60;99.90;;;;;;5098708;28;20490;-63
2023/02/16 06:34:26;;;;;;;13.97;7.20;;;2.70;99.90;;;;;;5098545;28;20532;-64
2023/02/16 06:36:53;;;;;;;13.90;7.10;;;2.70;99.90;;;;;;5099448;28;20431;-61
2023/02/16 06:39:20;;;;;;;16.17;8.93;;;2.70;99.90;;;;;;5099040;28;20451;-62
2023/02/16 06:41:48;;;;;;;15.67;9.13;;;2.80;99.90;;;;;;5098828;28;20489;-65
2023/02/16 06:44:17;;;;;;;13.77;8.50;;;2.80;99.90;;;;;;5099621;28;20435;-62
2023/02/16 06:46:49;;;;;;;12.77;7.67;;;2.80;99.90;;;;;;5098531;28;20442;-62
2023/02/16 06:49:18;;;;;;;14.70;8.93;;;3.00;99.90;;;;;;5100201;28;20466;-57
2023/02/16 06:51:47;;;;;;;16.13;8.30;;;2.90;99.90;;;;;;5100468;28;20443;-61
2023/02/16 06:54:15;;;;;;;13.50;8.30;;;2.90;99.90;;;;;;5099968;28;20858;-62
2023/02/16 06:56:41;;;;;;;17.73;9.47;;;2.90;99.90;;;;;;5099955;28;20450;-60
2023/02/16 06:59:08;;;;;;;16.50;7.80;;;2.90;99.90;;;;;;5100064;28;20434;-61
2023/02/16 07:01:35;;;;;;;12.70;7.00;;;2.90;99.90;;;;;;5098850;28;20481;-63
2023/02/16 07:04:02;;;;;;;16.77;9.00;;;2.90;99.90;;;;;;5098617;28;20443;-66
2023/02/16 07:06:29;;;;;;;11.13;8.20;;;2.90;99.90;;;;;;5099542;28;20473;-65
2023/02/16 07:08:59;;;;;;;12.63;7.87;;;2.90;99.90;;;;;;5099511;28;20446;-63
2023/02/16 07:11:25;;;;;;;11.07;6.60;;;2.90;99.90;;;;;;5099570;28;20526;-60
2023/02/16 07:13:52;;;;;;;17.00;8.53;;;3.00;99.90;;;;;;5099786;28;20421;-61
2023/02/16 07:16:19;;;;;;;12.20;8.40;;;3.00;99.90;;;;;;5100123;28;20458;-62
2023/02/16 07:18:46;;;;;;;15.50;9.73;;;3.10;99.90;;;;;;5099396;28;20403;-64
2023/02/16 07:21:13;;;;;;;12.67;7.70;;;3.20;99.90;;;;;;5098475;28;20482;-62
2023/02/16 07:23:40;;;;;;;19.23;7.97;;;3.20;99.90;;;;;;5098208;28;20481;-62
2023/02/16 07:26:11;;;;;;;22.43;10.50;;;3.30;99.90;;;;;;5098467;28;20442;-63
2023/02/16 07:28:38;;;;;;;17.37;8.53;;;3.40;99.90;;;;;;5098206;28;20451;-64
2023/02/16 07:31:11;;;;;;;14.63;9.27;;;3.40;99.90;;;;;;5098158;28;20433;-63
2023/02/16 07:33:38;;;;;;;11.67;7.40;;;3.50;99.90;;;;;;5098792;28;20462;-64
2023/02/16 07:36:06;;;;;;;15.73;8.63;;;3.50;99.90;;;;;;5098143;28;20442;-64
2023/02/16 07:38:33;;;;;;;17.93;9.93;;;3.50;99.90;;;;;;5098592;28;20447;-59
2023/02/16 07:41:02;;;;;;;14.50;7.97;;;3.50;99.90;;;;;;5097830;28;20478;-62
2023/02/16 07:43:31;;;;;;;18.57;9.73;;;3.50;99.90;;;;;;5098590;28;20446;-60
2023/02/16 07:46:07;;;;;;;20.37;11.57;;;3.60;99.90;;;;;;5098681;28;20407;-65
2023/02/16 07:48:34;;;;;;;13.70;8.60;;;3.50;99.90;;;;;;5098192;28;20442;-62
2023/02/16 07:51:01;;;;;;;17.83;9.57;;;3.60;99.90;;;;;;5096330;28;20430;-63
2023/02/16 07:53:31;;;;;;;25.30;10.70;;;3.70;99.90;;;;;;5098400;28;20426;-59
2023/02/16 07:55:58;;;;;;;18.80;10.40;;;3.70;99.90;;;;;;5097145;28;20426;-65
2023/02/16 07:58:28;;;;;;;15.60;10.10;;;3.80;99.90;;;;;;5098265;28;20441;-64
2023/02/16 08:01:05;;;;;;;12.03;8.60;;;3.80;99.90;;;;;;5098063;28;20474;-63
2023/02/16 08:03:31;;;;;;;23.30;10.53;;;3.80;99.90;;;;;;5097657;28;20422;-57
2023/02/16 08:06:00;;;;;;;19.73;10.33;;;4.00;99.90;;;;;;5098162;28;20453;-60
2023/02/16 08:08:27;;;;;;;29.73;11.60;;;3.90;99.90;;;;;;5097664;28;20450;-61
2023/02/16 08:10:54;;;;;;;27.60;11.60;;;4.00;99.90;;;;;;5097642;28;20439;-60
2023/02/16 08:13:21;;;;;;;16.10;9.77;;;4.10;99.90;;;;;;5098004;28;20464;-60
2023/02/16 08:15:48;;;;;;;15.30;9.53;;;4.10;99.90;;;;;;5095743;28;20505;-63
2023/02/16 08:18:16;;;;;;;16.37;10.23;;;4.20;99.90;;;;;;5094530;28;20462;-63
2023/02/16 08:20:44;;;;;;;21.27;10.73;;;4.30;99.90;;;;;;5086676;28;20522;-63
2023/02/16 08:23:10;;;;;;;22.47;10.57;;;4.40;99.90;;;;;;5085436;28;20458;-64
2023/02/16 08:25:37;;;;;;;18.53;9.73;;;4.40;99.90;;;;;;5085256;28;20573;-63
2023/02/16 08:28:05;;;;;;;23.43;12.17;;;4.40;99.90;;;;;;5083704;28;20474;-64
2023/02/16 08:30:33;;;;;;;16.33;10.07;;;4.50;99.90;;;;;;5083914;28;20478;-65
2023/02/16 08:33:00;;;;;;;24.17;11.77;;;4.60;99.90;;;;;;5083591;28;20872;-62
2023/02/16 08:35:31;;;;;;;15.47;8.87;;;4.60;99.90;;;;;;5084131;28;20468;-63
2023/02/16 08:37:58;;;;;;;20.77;12.50;;;4.70;99.90;;;;;;5087132;28;20499;-65
2023/02/16 08:40:31;;;;;;;26.97;12.77;;;4.70;99.90;;;;;;5094039;28;20581;-60
2023/02/16 08:42:58;;;;;;;23.77;11.40;;;4.80;99.90;;;;;;5097007;28;20426;-63
2023/02/16 08:45:25;;;;;;;19.00;10.07;;;4.80;99.90;;;;;;5096600;28;20450;-65
2023/02/16 08:47:52;;;;;;;22.27;11.20;;;4.90;99.90;;;;;;5096104;28;20470;-63
2023/02/16 08:50:21;;;;;;;19.60;10.63;;;5.00;99.90;;;;;;5096339;28;20442;-60
2023/02/16 08:52:50;;;;;;;24.63;12.00;;;5.10;99.90;;;;;;5096314;28;20476;-63
2023/02/16 08:55:17;;;;;;;17.50;10.37;;;5.10;99.90;;;;;;5097140;28;20433;-64
2023/02/16 08:57:44;;;;;;;31.33;17.30;;;5.20;99.90;;;;;;5097019;28;20427;-61
2023/02/16 09:02:58;;;;;;;18.17;11.13;;;5.40;99.90;;;;;;5097247;28;20450;-66
2023/02/16 09:05:27;;;;;;;19.90;11.43;;;5.60;99.90;;;;;;5097023;28;20442;-63
2023/02/16 09:07:56;;;;;;;20.23;11.07;;;5.80;99.90;;;;;;5097588;28;20850;-65
2023/02/16 09:10:23;;;;;;;24.17;10.73;;;5.70;99.90;;;;;;5096151;28;20899;-65
2023/02/16 09:12:50;;;;;;;17.73;12.33;;;5.80;99.90;;;;;;5096652;28;20438;-61
2023/02/16 09:15:17;;;;;;;20.17;11.50;;;6.00;99.90;;;;;;5096667;28;20470;-63
2023/02/16 09:17:45;;;;;;;19.40;12.17;;;6.10;99.90;;;;;;5096632;28;20426;-62
2023/02/16 09:20:14;;;;;;;22.17;11.97;;;6.20;99.90;;;;;;5096811;28;20449;-61
2023/02/16 09:22:46;;;;;;;24.13;11.37;;;6.40;99.90;;;;;;5096948;28;20407;-59
2023/02/16 09:25:15;;;;;;;19.57;11.93;;;6.40;99.90;;;;;;5097593;28;20411;-59
2023/02/16 09:27:43;;;;;;;20.30;10.87;;;6.60;99.90;;;;;;5097049;28;20449;-64
2023/02/16 09:30:10;;;;;;;30.43;13.10;;;6.70;99.90;;;;;;5096719;28;20533;-60
2023/02/16 09:32:39;;;;;;;22.83;12.37;;;6.80;99.90;;;;;;5095531;28;20466;-62
2023/02/16 09:35:07;;;;;;;119.93;44.63;;;7.00;99.90;;;;;;5096089;28;20442;-63
2023/02/16 09:37:36;;;;;;;20.87;13.33;;;7.10;99.90;;;;;;5096523;28;20463;-63
2023/02/16 09:40:04;;;;;;;21.90;11.47;;;7.60;99.90;;;;;;5096573;28;20449;-64
2023/02/16 09:42:50;;;;;;;33.67;14.80;;;7.40;99.90;;;;;;5096829;28;20511;-61
2023/02/16 09:45:19;;;;;;;23.03;12.63;;;7.60;99.90;;;;;;5096859;28;20478;-61
2023/02/16 09:47:48;;;;;;;21.97;11.20;;;7.90;99.90;;;;;;5096276;28;20422;-62
2023/02/16 09:50:18;;;;;;;24.20;13.17;;;8.10;99.90;;;;;;5096398;28;20434;-64
2023/02/16 09:52:51;;;;;;;18.40;11.37;;;8.50;99.90;;;;;;5096592;28;20458;-60
2023/02/16 09:55:21;;;;;;;24.53;11.17;;;8.90;99.90;;;;;;5096660;28;20454;-63
2023/02/16 09:58:00;;;;;;;22.30;13.27;;;9.40;99.90;;;;;;5095949;28;20497;-65
2023/02/16 10:00:44;;;;;;;23.43;12.80;;;10.50;99.90;;;;;;5087753;28;20494;-64
2023/02/16 10:03:36;;;;;;;29.20;13.57;;;10.70;99.90;;;;;;5082802;28;20433;-64
2023/02/16 10:06:22;;;;;;;16.57;12.00;;;13.40;99.90;;;;;;5096381;28;20467;-66
2023/02/16 10:08:55;;;;;;;22.77;14.00;;;14.40;99.90;;;;;;5092722;28;20426;-66
2023/02/16 10:11:45;;;;;;;21.87;12.83;;;15.10;99.90;;;;;;5082164;28;20469;-67
2023/02/16 10:14:22;;;;;;;20.87;12.83;;;15.60;98.40;;;;;;5081798;28;20438;-64
2023/02/16 10:16:57;;;;;;;21.77;12.60;;;16.20;95.90;;;;;;5082282;28;20490;-62
2023/02/16 10:19:29;;;;;;;23.43;13.03;;;16.70;92.70;;;;;;5081057;28;20425;-65
2023/02/16 10:22:01;;;;;;;23.87;13.73;;;17.00;91.00;;;;;;5084426;28;20535;-64
2023/02/16 10:24:34;;;;;;;21.00;13.20;;;17.10;86.80;;;;;;5086543;28;20468;-64
2023/02/16 10:27:12;;;;;;;22.87;12.80;;;17.00;87.70;;;;;;5097287;28;20460;-63
2023/02/16 10:29:40;;;;;;;23.90;16.20;;;16.70;87.10;;;;;;5095049;28;20446;-63
2023/02/16 10:32:15;;;;;;;28.47;14.40;;;16.30;88.40;;;;;;5094611;28;20438;-63
2023/02/16 10:34:50;;;;;;;24.20;13.93;;;16.10;89.00;;;;;;5086032;28;20462;-62
2023/02/16 10:37:39;;;;;;;23.63;13.17;;;15.50;88.70;;;;;;5087077;28;20427;-64
2023/02/16 10:40:22;;;;;;;24.47;13.17;;;15.10;91.00;;;;;;5086897;28;20491;-63
2023/02/16 10:42:55;;;;;;;24.97;12.60;;;14.70;91.50;;;;;;5087922;28;20509;-66
2023/02/16 10:45:30;;;;;;;26.20;13.17;;;14.40;92.90;;;;;;5087580;28;20562;-63
2023/02/16 10:47:57;;;;;;;23.40;13.47;;;14.10;95.00;;;;;;5087555;28;20426;-63
2023/02/16 10:50:30;;;;;;;20.67;12.80;;;14.00;95.50;;;;;;5088018;28;20481;-63
2023/02/16 10:52:59;;;;;;;24.93;14.67;;;13.80;97.40;;;;;;5088734;28;20502;-62
2023/02/16 10:55:26;;;;;;;22.60;12.77;;;14.10;96.30;;;;;;5087566;28;20806;-63
2023/02/16 10:57:55;;;;;;;27.10;15.47;;;14.50;94.70;;;;;;5087100;28;20457;-62
2023/02/16 11:00:34;;;;;;;26.73;14.67;;;14.60;94.00;;;;;;5086854;28;20442;-63
2023/02/16 11:03:02;;;;;;;24.70;12.47;;;14.30;94.20;;;;;;5087224;28;20469;-63
2023/02/16 11:05:36;;;;;;;22.83;13.77;;;14.10;94.80;;;;;;5087190;28;20456;-61
2023/02/16 11:08:05;;;;;;;23.73;13.47;;;13.80;95.30;;;;;;5086944;28;20470;-65
2023/02/16 11:10:38;;;;;;;21.73;13.57;;;13.60;97.10;;;;;;5086630;28;20478;-63
2023/02/16 11:13:05;;;;;;;29.60;13.40;;;13.70;97.00;;;;;;5086714;28;20474;-66
2023/02/16 11:15:36;;;;;;;29.77;15.17;;;13.60;97.30;;;;;;5087201;28;20461;-64
2023/02/16 11:18:07;;;;;;;26.47;14.33;;;13.30;97.80;;;;;;5087154;28;20506;-64
2023/02/16 11:20:52;;;;;;;18.33;10.90;;;13.30;98.90;;;;;;5086811;28;20441;-65
2023/02/16 11:23:24;;;;;;;27.17;15.43;;;13.30;99.40;;;;;;5093753;28;20510;-64
2023/02/16 11:26:01;;;;;;;22.83;11.53;;;13.30;99.80;;;;;;5097837;28;20469;-64
2023/02/16 11:28:32;;;;;;;23.27;12.63;;;13.10;99.70;;;;;;5095813;28;20430;-67
2023/02/16 11:31:09;;;;;;;26.70;14.23;;;12.70;99.90;;;;;;5087493;28;20504;-64
2023/02/16 11:33:37;;;;;;;28.47;14.13;;;12.40;99.90;;;;;;5087096;28;20488;-64
2023/02/16 11:36:19;;;;;;;24.60;12.00;;;12.20;99.90;;;;;;5087546;28;20858;-60
2023/02/16 11:38:57;;;;;;;24.10;12.20;;;12.00;99.90;;;;;;5088449;28;20431;-62
2023/02/16 11:41:25;;;;;;;25.90;14.40;;;12.00;99.90;;;;;;5088305;28;20486;-65
2023/02/16 11:43:53;;;;;;;25.33;13.00;;;11.90;99.90;;;;;;5088469;28;20786;-61
2023/02/16 11:46:22;;;;;;;21.03;13.00;;;11.90;99.90;;;;;;5088232;28;20482;-64
2023/02/16 11:48:51;;;;;;;23.33;13.37;;;11.80;99.90;;;;;;5096953;28;20413;-62
2023/02/16 11:51:32;;;;;;;26.57;13.70;;;11.70;99.90;;;;;;5094781;28;20442;-66
2023/02/16 11:54:04;;;;;;;22.03;11.97;;;11.60;99.90;;;;;;5097589;28;20414;-64
2023/02/16 11:56:35;;;;;;;25.60;13.43;;;11.50;99.90;;;;;;5097595;28;20446;-64
2023/02/16 11:59:08;;;;;;;26.47;12.23;;;11.50;99.90;;;;;;5091731;28;20435;-66
2023/02/16 12:02:03;;;;;;;34.13;14.93;;;11.50;99.90;;;;;;5094997;28;20474;-64
2023/02/16 12:04:51;;;;;;;34.47;14.20;;;11.50;99.90;;;;;;5097893;28;20431;-62
2023/02/16 12:07:29;;;;;;;27.83;12.90;;;11.60;99.90;;;;;;5097595;28;20437;-60
2023/02/16 12:10:07;;;;;;;25.37;12.80;;;11.60;99.90;;;;;;5097345;28;20470;-61
2023/02/16 12:12:54;;;;;;;24.97;13.00;;;11.70;99.90;;;;;;5096415;28;20427;-61
2023/02/16 12:15:27;;;;;;;23.00;13.27;;;11.80;99.90;;;;;;5097292;28;20490;-64
2023/02/16 12:18:15;;;;;;;19.73;11.93;;;11.90;99.90;;;;;;5095870;28;20437;-62
2023/02/16 12:20:53;;;;;;;22.80;12.40;;;11.90;99.90;;;;;;5095582;28;20458;-63
2023/02/16 12:43:32;;;;;;;36.20;20.00;;;12.40;99.90;;;;;;5202605;22;20562;-64
2023/02/16 12:46:05;;;;;;;19.43;11.10;;;12.50;99.90;;;;;;5097153;22;20466;-65
2023/02/16 12:48:44;;;;;;;25.07;12.20;;;12.30;99.90;;;;;;5066140;28;20452;-66
2023/02/16 12:51:17;;;;;;;22.83;10.90;;;12.30;99.90;;;;;;5065978;28;20482;-64
2023/02/16 12:53:50;;;;;;;27.70;12.77;;;12.30;99.90;;;;;;5066434;28;20447;-64
2023/02/16 12:56:22;;;;;;;24.53;10.90;;;12.40;99.90;;;;;;5066819;28;20451;-64
2023/02/16 12:58:56;;;;;;;25.83;11.87;;;12.30;99.90;;;;;;5066369;28;20966;-64
2023/02/16 13:01:31;;;;;;;24.73;11.73;;;12.20;99.90;;;;;;5075059;28;20460;-63
2023/02/16 13:04:04;;;;;;;21.70;11.77;;;12.00;99.90;;;;;;5074844;28;20494;-64
2023/02/16 13:06:36;;;;;;;19.73;11.23;;;11.90;99.90;;;;;;5073766;28;20451;-64
2023/02/16 13:09:16;;;;;;;21.93;11.43;;;11.90;99.90;;;;;;5068331;28;20467;-62
2023/02/16 13:11:49;;;;;;;16.30;10.80;;;11.90;99.90;;;;;;5067724;28;20465;-64
2023/02/16 13:14:23;;;;;;;17.00;10.20;;;11.90;99.90;;;;;;5067586;28;20506;-63
2023/02/16 13:16:53;;;;;;;18.60;11.17;;;12.00;99.90;;;;;;5066429;28;20478;-65
2023/02/16 13:19:20;;;;;;;20.57;10.60;;;12.20;99.90;;;;;;5066221;28;20470;-64
2023/02/16 13:22:16;;;;;;;22.73;11.50;;;12.30;99.90;;;;;;5065819;28;20458;-62
2023/02/16 13:24:51;;;;;;;21.07;12.40;;;12.50;99.90;;;;;;5065135;28;20521;-63
2023/02/16 13:27:30;;;;;;;21.77;11.60;;;12.60;99.90;;;;;;5065001;28;20446;-63
2023/02/16 13:30:32;;;;;;;24.27;11.13;;;12.70;99.90;;;;;;5065580;28;20530;-64
2023/02/16 13:33:14;;;;;;;22.40;12.60;;;12.70;99.90;;;;;;5055236;28;20481;-64
2023/02/16 13:36:09;;;;;;;26.87;10.63;;;12.70;99.90;;;;;;5058332;28;21307;-64
2023/02/16 13:39:03;;;;;;;22.80;11.63;;;12.70;99.90;;;;;;5058214;28;20458;-64
2023/02/16 13:41:54;;;;;;;25.07;12.03;;;12.80;99.90;;;;;;5057843;28;20505;-63
2023/02/16 13:44:24;;;;;;;20.40;11.93;;;13.00;99.90;;;;;;5057816;28;20455;-65
2023/02/16 13:46:53;;;;;;;21.07;12.40;;;13.30;99.90;;;;;;5057432;28;20470;-62
2023/02/16 13:49:35;;;;;;;21.53;10.63;;;13.40;99.90;;;;;;5057720;28;20482;-64
2023/02/16 13:52:02;;;;;;;25.17;9.77;;;13.40;99.90;;;;;;5057910;28;20578;-61
2023/02/16 13:54:31;;;;;;;23.53;10.90;;;13.40;99.90;;;;;;5057604;28;20752;-63
2023/02/16 13:57:02;;;;;;;20.30;10.43;;;13.30;99.90;;;;;;5060119;28;20443;-64
2023/02/16 13:59:58;;;;;;;19.63;10.07;;;13.30;99.90;;;;;;5061666;28;20483;-64
2023/02/16 14:02:58;;;;;;;25.50;12.67;;;13.30;99.90;;;;;;5061353;28;20458;-62
2023/02/16 14:05:29;;;;;;;24.63;11.67;;;13.30;99.90;;;;;;5027771;28;20475;-65
2023/02/16 14:08:15;;;;;;;20.10;10.33;;;13.20;99.90;;;;;;5060796;28;20466;-65
2023/02/16 14:11:05;;;;;;;18.33;9.33;;;13.00;99.90;;;;;;5061276;28;20459;-64